sensor_id;sensor_type;location;lat;lon;timestamp;pressure;altitude;pressure_sealevel;temperature;humidity
43814;BME280;29669;55.706;37.656;2022-10-26T00:01:37;100488.84;;;1.84;nan
43814;BME280;29669;55.706;37.656;2022-10-26T00:04:25;100480.72;;;1.77;nan
43814;BME280;29669;55.706;37.656;2022-10-26T00:07:13;100473.59;;;1.68;nan
43814;BME280;29669;55.706;37.656;2022-10-26T00:10:00;100478.13;;;1.63;nan
43814;BME280;29669;55.706;37.656;2022-10-26T00:12:50;100478.56;;;1.56;nan
43814;BME280;29669;55.706;37.656;2022-10-26T00:15:39;100478.75;;;1.53;nan
43814;BME280;29669;55.706;37.656;2022-10-26T00:18:28;100473.91;;;1.48;nan
43814;BME280;29669;55.706;37.656;2022-10-26T00:21:16;100477.53;;;1.44;nan
43814;BME280;29669;55.706;37.656;2022-10-26T00:24:05;100487.22;;;1.39;nan
43814;BME280;29669;55.706;37.656;2022-10-26T00:26:53;100477.50;;;1.30;nan
43814;BME280;29669;55.706;37.656;2022-10-26T00:29:40;100472.00;;;1.22;nan
43814;BME280;29669;55.706;37.656;2022-10-26T00:32:28;100471.78;;;1.11;nan
43814;BME280;29669;55.706;37.656;2022-10-26T00:35:16;100470.84;;;0.98;nan
43814;BME280;29669;55.706;37.656;2022-10-26T00:38:11;100470.66;;;0.85;nan
43814;BME280;29669;55.706;37.656;2022-10-26T00:40:58;100462.88;;;0.73;nan
43814;BME280;29669;55.706;37.656;2022-10-26T00:43:47;100469.38;;;0.63;nan
43814;BME280;29669;55.706;37.656;2022-10-26T00:46:37;100466.44;;;0.55;nan
43814;BME280;29669;55.706;37.656;2022-10-26T00:49:24;100471.88;;;0.49;nan
43814;BME280;29669;55.706;37.656;2022-10-26T00:52:14;100471.25;;;0.44;nan
43814;BME280;29669;55.706;37.656;2022-10-26T00:55:05;100465.59;;;0.39;nan
43814;BME280;29669;55.706;37.656;2022-10-26T00:57:54;100463.28;;;0.34;nan
43814;BME280;29669;55.706;37.656;2022-10-26T01:00:42;100475.22;;;0.34;nan
43814;BME280;29669;55.706;37.656;2022-10-26T01:03:32;100468.31;;;0.36;nan
43814;BME280;29669;55.706;37.656;2022-10-26T01:06:21;100468.81;;;0.42;nan
43814;BME280;29669;55.706;37.656;2022-10-26T01:09:09;100466.50;;;0.53;nan
43814;BME280;29669;55.706;37.656;2022-10-26T01:11:58;100464.13;;;0.66;nan
43814;BME280;29669;55.706;37.656;2022-10-26T01:14:46;100469.47;;;0.77;nan
43814;BME280;29669;55.706;37.656;2022-10-26T01:20:50;100464.88;;;0.98;nan
43814;BME280;29669;55.706;37.656;2022-10-26T01:36:35;100460.94;;;1.51;nan
43814;BME280;29669;55.706;37.656;2022-10-26T01:39:38;100451.72;;;1.63;nan
43814;BME280;29669;55.706;37.656;2022-10-26T01:42:29;100451.09;;;1.73;nan
43814;BME280;29669;55.706;37.656;2022-10-26T01:45:18;100455.84;;;1.79;nan
43814;BME280;29669;55.706;37.656;2022-10-26T01:48:08;100459.06;;;1.83;nan
43814;BME280;29669;55.706;37.656;2022-10-26T01:51:00;100452.38;;;1.80;nan
43814;BME280;29669;55.706;37.656;2022-10-26T01:53:48;100454.75;;;1.83;nan
43814;BME280;29669;55.706;37.656;2022-10-26T01:56:41;100461.31;;;1.87;nan
43814;BME280;29669;55.706;37.656;2022-10-26T02:00:08;100456.94;;;1.89;nan
43814;BME280;29669;55.706;37.656;2022-10-26T02:03:18;100464.53;;;1.91;nan
43814;BME280;29669;55.706;37.656;2022-10-26T02:09:25;100469.19;;;1.84;nan
43814;BME280;29669;55.706;37.656;2022-10-26T02:15:34;100462.66;;;1.51;nan
43814;BME280;29669;55.706;37.656;2022-10-26T02:18:34;100463.72;;;1.33;nan
43814;BME280;29669;55.706;37.656;2022-10-26T02:21:28;100472.25;;;1.18;nan
43814;BME280;29669;55.706;37.656;2022-10-26T02:24:21;100464.56;;;1.04;nan
43814;BME280;29669;55.706;37.656;2022-10-26T02:27:16;100470.34;;;0.91;nan
43814;BME280;29669;55.706;37.656;2022-10-26T02:30:06;100461.69;;;0.78;nan
43814;BME280;29669;55.706;37.656;2022-10-26T02:32:56;100473.31;;;0.68;nan
43814;BME280;29669;55.706;37.656;2022-10-26T02:35:47;100456.69;;;0.61;nan
43814;BME280;29669;55.706;37.656;2022-10-26T02:38:39;100460.31;;;0.57;nan
43814;BME280;29669;55.706;37.656;2022-10-26T02:41:29;100463.78;;;0.56;nan
43814;BME280;29669;55.706;37.656;2022-10-26T02:44:29;100462.88;;;0.57;nan
43814;BME280;29669;55.706;37.656;2022-10-26T02:47:18;100461.16;;;0.58;nan
43814;BME280;29669;55.706;37.656;2022-10-26T02:50:08;100459.34;;;0.60;nan
43814;BME280;29669;55.706;37.656;2022-10-26T02:53:26;100466.66;;;0.66;nan
43814;BME280;29669;55.706;37.656;2022-10-26T02:56:21;100454.78;;;0.65;nan
43814;BME280;29669;55.706;37.656;2022-10-26T02:59:11;100463.78;;;0.72;nan
43814;BME280;29669;55.706;37.656;2022-10-26T03:02:02;100462.44;;;0.80;nan
43814;BME280;29669;55.706;37.656;2022-10-26T03:04:51;100454.16;;;0.91;nan
43814;BME280;29669;55.706;37.656;2022-10-26T03:07:40;100462.25;;;0.99;nan
43814;BME280;29669;55.706;37.656;2022-10-26T03:10:28;100456.78;;;1.05;nan
43814;BME280;29669;55.706;37.656;2022-10-26T03:13:16;100458.19;;;1.11;nan
43814;BME280;29669;55.706;37.656;2022-10-26T03:16:04;100459.56;;;1.16;nan
43814;BME280;29669;55.706;37.656;2022-10-26T03:18:52;100456.91;;;1.18;nan
43814;BME280;29669;55.706;37.656;2022-10-26T03:21:40;100460.13;;;1.21;nan
43814;BME280;29669;55.706;37.656;2022-10-26T03:24:29;100456.56;;;1.24;nan
43814;BME280;29669;55.706;37.656;2022-10-26T03:27:17;100452.09;;;1.27;nan
43814;BME280;29669;55.706;37.656;2022-10-26T03:30:05;100451.75;;;1.33;nan
43814;BME280;29669;55.706;37.656;2022-10-26T03:32:53;100452.16;;;1.41;nan
43814;BME280;29669;55.706;37.656;2022-10-26T03:35:41;100461.84;;;1.50;nan
43814;BME280;29669;55.706;37.656;2022-10-26T03:38:29;100455.44;;;1.57;nan
43814;BME280;29669;55.706;37.656;2022-10-26T03:41:17;100455.72;;;1.67;nan
43814;BME280;29669;55.706;37.656;2022-10-26T03:44:05;100456.00;;;1.76;nan
43814;BME280;29669;55.706;37.656;2022-10-26T03:46:54;100457.13;;;1.86;nan
43814;BME280;29669;55.706;37.656;2022-10-26T03:49:42;100444.69;;;1.95;nan
43814;BME280;29669;55.706;37.656;2022-10-26T03:52:30;100435.00;;;2.00;nan
43814;BME280;29669;55.706;37.656;2022-10-26T03:55:17;100438.03;;;2.06;nan
43814;BME280;29669;55.706;37.656;2022-10-26T03:58:06;100440.28;;;2.11;nan
43814;BME280;29669;55.706;37.656;2022-10-26T04:00:54;100436.81;;;2.12;nan
43814;BME280;29669;55.706;37.656;2022-10-26T04:03:41;100445.78;;;2.19;nan
43814;BME280;29669;55.706;37.656;2022-10-26T04:06:29;100440.38;;;2.23;nan
43814;BME280;29669;55.706;37.656;2022-10-26T04:09:17;100439.34;;;2.26;nan
43814;BME280;29669;55.706;37.656;2022-10-26T04:12:05;100446.13;;;2.27;nan
43814;BME280;29669;55.706;37.656;2022-10-26T04:14:53;100441.75;;;2.29;nan
43814;BME280;29669;55.706;37.656;2022-10-26T04:17:44;100443.19;;;2.33;nan
43814;BME280;29669;55.706;37.656;2022-10-26T04:20:32;100446.28;;;2.38;nan
43814;BME280;29669;55.706;37.656;2022-10-26T04:23:21;100439.25;;;2.41;nan
43814;BME280;29669;55.706;37.656;2022-10-26T04:26:09;100442.31;;;2.46;nan
43814;BME280;29669;55.706;37.656;2022-10-26T04:28:57;100452.50;;;2.48;nan
43814;BME280;29669;55.706;37.656;2022-10-26T04:31:45;100454.75;;;2.52;nan
43814;BME280;29669;55.706;37.656;2022-10-26T04:34:33;100456.13;;;2.58;nan
43814;BME280;29669;55.706;37.656;2022-10-26T04:37:21;100462.53;;;2.65;nan
43814;BME280;29669;55.706;37.656;2022-10-26T04:40:09;100453.63;;;2.70;nan
43814;BME280;29669;55.706;37.656;2022-10-26T04:42:58;100458.06;;;2.81;nan
43814;BME280;29669;55.706;37.656;2022-10-26T04:45:46;100465.06;;;2.92;nan
43814;BME280;29669;55.706;37.656;2022-10-26T04:48:34;100469.53;;;3.02;nan
43814;BME280;29669;55.706;37.656;2022-10-26T04:51:22;100471.72;;;3.08;nan
43814;BME280;29669;55.706;37.656;2022-10-26T04:54:10;100472.00;;;3.16;nan
43814;BME280;29669;55.706;37.656;2022-10-26T04:56:58;100467.81;;;3.15;nan
43814;BME280;29669;55.706;37.656;2022-10-26T04:59:46;100460.63;;;3.20;nan
43814;BME280;29669;55.706;37.656;2022-10-26T05:02:34;100461.38;;;3.22;nan
43814;BME280;29669;55.706;37.656;2022-10-26T05:05:21;100469.69;;;3.26;nan
43814;BME280;29669;55.706;37.656;2022-10-26T05:08:09;100458.63;;;3.25;nan
43814;BME280;29669;55.706;37.656;2022-10-26T05:10:57;100471.00;;;3.31;nan
43814;BME280;29669;55.706;37.656;2022-10-26T05:13:46;100469.91;;;3.35;nan
43814;BME280;29669;55.706;37.656;2022-10-26T05:16:35;100466.09;;;3.41;nan
43814;BME280;29669;55.706;37.656;2022-10-26T05:19:23;100470.75;;;3.48;nan
43814;BME280;29669;55.706;37.656;2022-10-26T05:22:11;100459.88;;;3.57;nan
43814;BME280;29669;55.706;37.656;2022-10-26T05:24:59;100463.47;;;3.67;nan
43814;BME280;29669;55.706;37.656;2022-10-26T05:27:46;100464.63;;;3.76;nan
43814;BME280;29669;55.706;37.656;2022-10-26T05:30:34;100461.94;;;3.77;nan
43814;BME280;29669;55.706;37.656;2022-10-26T05:33:22;100468.28;;;3.84;nan
43814;BME280;29669;55.706;37.656;2022-10-26T05:36:10;100457.00;;;3.87;nan
43814;BME280;29669;55.706;37.656;2022-10-26T05:38:58;100458.75;;;3.87;nan
43814;BME280;29669;55.706;37.656;2022-10-26T05:41:47;100464.59;;;3.89;nan
43814;BME280;29669;55.706;37.656;2022-10-26T05:44:34;100458.44;;;3.91;nan
43814;BME280;29669;55.706;37.656;2022-10-26T05:47:22;100471.59;;;3.87;nan
43814;BME280;29669;55.706;37.656;2022-10-26T05:50:12;100469.97;;;3.86;nan
43814;BME280;29669;55.706;37.656;2022-10-26T05:53:00;100459.06;;;3.95;nan
43814;BME280;29669;55.706;37.656;2022-10-26T05:55:48;100476.09;;;4.08;nan
43814;BME280;29669;55.706;37.656;2022-10-26T05:58:37;100476.91;;;4.21;nan
43814;BME280;29669;55.706;37.656;2022-10-26T06:04:29;100473.16;;;4.50;nan
43814;BME280;29669;55.706;37.656;2022-10-26T06:07:19;100478.13;;;4.64;nan
43814;BME280;29669;55.706;37.656;2022-10-26T06:10:09;100487.75;;;4.73;nan
43814;BME280;29669;55.706;37.656;2022-10-26T06:12:58;100479.63;;;4.79;nan
43814;BME280;29669;55.706;37.656;2022-10-26T06:18:57;100484.94;;;4.89;nan
43814;BME280;29669;55.706;37.656;2022-10-26T06:30:40;100477.41;;;4.62;nan
43814;BME280;29669;55.706;37.656;2022-10-26T06:33:28;100480.94;;;4.61;nan
43814;BME280;29669;55.706;37.656;2022-10-26T06:36:24;100474.84;;;4.62;nan
43814;BME280;29669;55.706;37.656;2022-10-26T06:39:14;100471.44;;;4.62;nan
43814;BME280;29669;55.706;37.656;2022-10-26T06:42:03;100466.94;;;4.65;nan
43814;BME280;29669;55.706;37.656;2022-10-26T06:44:51;100461.84;;;4.76;nan
43814;BME280;29669;55.706;37.656;2022-10-26T06:50:50;100461.38;;;5.06;nan
43814;BME280;29669;55.706;37.656;2022-10-26T06:56:33;100467.66;;;5.26;nan
43814;BME280;29669;55.706;37.656;2022-10-26T06:59:31;100462.19;;;5.41;nan
43814;BME280;29669;55.706;37.656;2022-10-26T07:02:23;100469.25;;;5.50;nan
43814;BME280;29669;55.706;37.656;2022-10-26T07:05:11;100476.75;;;5.53;nan
43814;BME280;29669;55.706;37.656;2022-10-26T07:08:03;100468.81;;;5.67;nan
43814;BME280;29669;55.706;37.656;2022-10-26T07:10:51;100470.84;;;5.75;nan
43814;BME280;29669;55.706;37.656;2022-10-26T07:13:39;100469.88;;;5.76;nan
43814;BME280;29669;55.706;37.656;2022-10-26T07:16:27;100475.91;;;5.88;nan
43814;BME280;29669;55.706;37.656;2022-10-26T07:19:15;100470.88;;;5.97;nan
43814;BME280;29669;55.706;37.656;2022-10-26T07:22:03;100484.69;;;5.96;nan
43814;BME280;29669;55.706;37.656;2022-10-26T07:24:51;100467.72;;;6.05;nan
43814;BME280;29669;55.706;37.656;2022-10-26T07:27:39;100476.16;;;6.18;nan
43814;BME280;29669;55.706;37.656;2022-10-26T07:30:28;100470.06;;;6.30;nan
43814;BME280;29669;55.706;37.656;2022-10-26T07:33:16;100478.47;;;6.43;nan
43814;BME280;29669;55.706;37.656;2022-10-26T07:36:05;100470.47;;;6.57;nan
43814;BME280;29669;55.706;37.656;2022-10-26T07:38:53;100466.22;;;6.67;nan
43814;BME280;29669;55.706;37.656;2022-10-26T07:41:41;100475.94;;;6.75;nan
43814;BME280;29669;55.706;37.656;2022-10-26T07:44:29;100476.13;;;6.94;nan
43814;BME280;29669;55.706;37.656;2022-10-26T07:47:17;100472.69;;;7.04;nan
43814;BME280;29669;55.706;37.656;2022-10-26T07:50:05;100462.00;;;7.09;nan
43814;BME280;29669;55.706;37.656;2022-10-26T07:52:57;100471.50;;;7.08;nan
43814;BME280;29669;55.706;37.656;2022-10-26T07:55:53;100469.69;;;7.20;nan
43814;BME280;29669;55.706;37.656;2022-10-26T07:58:41;100473.25;;;7.39;nan
43814;BME280;29669;55.706;37.656;2022-10-26T08:01:29;100468.19;;;7.58;nan
43814;BME280;29669;55.706;37.656;2022-10-26T08:04:17;100470.16;;;7.66;nan
43814;BME280;29669;55.706;37.656;2022-10-26T08:07:05;100469.69;;;7.82;nan
43814;BME280;29669;55.706;37.656;2022-10-26T08:09:53;100475.28;;;7.87;nan
43814;BME280;29669;55.706;37.656;2022-10-26T08:12:42;100476.00;;;7.89;nan
43814;BME280;29669;55.706;37.656;2022-10-26T08:15:30;100477.94;;;7.96;nan
43814;BME280;29669;55.706;37.656;2022-10-26T08:18:18;100473.88;;;8.03;nan
43814;BME280;29669;55.706;37.656;2022-10-26T08:21:09;100476.09;;;8.08;nan
43814;BME280;29669;55.706;37.656;2022-10-26T08:24:00;100472.41;;;8.10;nan
43814;BME280;29669;55.706;37.656;2022-10-26T08:26:48;100466.13;;;8.03;nan
43814;BME280;29669;55.706;37.656;2022-10-26T08:29:36;100469.06;;;7.99;nan
43814;BME280;29669;55.706;37.656;2022-10-26T08:32:23;100466.59;;;7.88;nan
43814;BME280;29669;55.706;37.656;2022-10-26T08:35:12;100461.25;;;7.80;nan
43814;BME280;29669;55.706;37.656;2022-10-26T08:38:00;100455.97;;;7.81;nan
43814;BME280;29669;55.706;37.656;2022-10-26T08:40:48;100466.16;;;7.83;nan
43814;BME280;29669;55.706;37.656;2022-10-26T08:43:39;100466.28;;;7.81;nan
43814;BME280;29669;55.706;37.656;2022-10-26T08:46:35;100468.47;;;7.86;nan
43814;BME280;29669;55.706;37.656;2022-10-26T08:49:29;100467.09;;;7.82;nan
43814;BME280;29669;55.706;37.656;2022-10-26T08:52:23;100472.78;;;7.76;nan
43814;BME280;29669;55.706;37.656;2022-10-26T08:55:18;100468.56;;;7.75;nan
43814;BME280;29669;55.706;37.656;2022-10-26T08:58:14;100468.91;;;7.60;nan
43814;BME280;29669;55.706;37.656;2022-10-26T09:01:03;100471.53;;;7.49;nan
43814;BME280;29669;55.706;37.656;2022-10-26T09:03:52;100470.66;;;7.60;nan
43814;BME280;29669;55.706;37.656;2022-10-26T09:06:57;100465.09;;;7.64;nan
43814;BME280;29669;55.706;37.656;2022-10-26T09:12:54;100462.63;;;7.63;nan
43814;BME280;29669;55.706;37.656;2022-10-26T09:16:06;100468.06;;;7.60;nan
43814;BME280;29669;55.706;37.656;2022-10-26T09:24:52;100466.44;;;7.80;nan
43814;BME280;29669;55.706;37.656;2022-10-26T09:27:44;100465.72;;;7.78;nan
43814;BME280;29669;55.706;37.656;2022-10-26T09:30:34;100465.72;;;7.78;nan
43814;BME280;29669;55.706;37.656;2022-10-26T09:33:23;100461.38;;;7.78;nan
43814;BME280;29669;55.706;37.656;2022-10-26T09:36:21;100465.19;;;7.84;nan
43814;BME280;29669;55.706;37.656;2022-10-26T09:39:32;100457.75;;;7.90;nan
43814;BME280;29669;55.706;37.656;2022-10-26T09:45:50;100456.09;;;8.10;nan
43814;BME280;29669;55.706;37.656;2022-10-26T09:48:42;100457.03;;;8.09;nan
43814;BME280;29669;55.706;37.656;2022-10-26T09:51:35;100462.00;;;8.01;nan
43814;BME280;29669;55.706;37.656;2022-10-26T09:54:25;100465.28;;;8.03;nan
43814;BME280;29669;55.706;37.656;2022-10-26T09:57:17;100457.66;;;8.01;nan
43814;BME280;29669;55.706;37.656;2022-10-26T10:00:12;100461.78;;;8.04;nan
43814;BME280;29669;55.706;37.656;2022-10-26T10:03:00;100447.75;;;8.06;nan
43814;BME280;29669;55.706;37.656;2022-10-26T10:05:48;100454.44;;;8.09;nan
43814;BME280;29669;55.706;37.656;2022-10-26T10:08:38;100457.72;;;8.11;nan
43814;BME280;29669;55.706;37.656;2022-10-26T10:14:32;100458.09;;;8.27;nan
43814;BME280;29669;55.706;37.656;2022-10-26T10:17:24;100452.94;;;8.46;nan
43814;BME280;29669;55.706;37.656;2022-10-26T10:20:17;100458.03;;;8.57;nan
43814;BME280;29669;55.706;37.656;2022-10-26T10:23:27;100454.88;;;8.63;nan
43814;BME280;29669;55.706;37.656;2022-10-26T10:26:15;100450.56;;;8.73;nan
43814;BME280;29669;55.706;37.656;2022-10-26T10:29:13;100451.66;;;8.90;nan
43814;BME280;29669;55.706;37.656;2022-10-26T10:32:03;100450.88;;;9.08;nan
43814;BME280;29669;55.706;37.656;2022-10-26T10:34:53;100446.34;;;9.10;nan
43814;BME280;29669;55.706;37.656;2022-10-26T10:37:44;100447.16;;;9.11;nan
43814;BME280;29669;55.706;37.656;2022-10-26T10:40:33;100446.22;;;9.21;nan
43814;BME280;29669;55.706;37.656;2022-10-26T10:43:22;100442.94;;;9.29;nan
43814;BME280;29669;55.706;37.656;2022-10-26T10:46:17;100440.06;;;9.22;nan
43814;BME280;29669;55.706;37.656;2022-10-26T10:49:17;100454.69;;;9.23;nan
43814;BME280;29669;55.706;37.656;2022-10-26T10:52:06;100457.25;;;9.23;nan
43814;BME280;29669;55.706;37.656;2022-10-26T10:55:14;100453.56;;;9.26;nan
43814;BME280;29669;55.706;37.656;2022-10-26T11:00:58;100448.50;;;9.34;nan
43814;BME280;29669;55.706;37.656;2022-10-26T11:06:44;100453.38;;;9.56;nan
43814;BME280;29669;55.706;37.656;2022-10-26T11:09:36;100452.69;;;9.64;nan
43814;BME280;29669;55.706;37.656;2022-10-26T11:12:33;100456.94;;;9.65;nan
43814;BME280;29669;55.706;37.656;2022-10-26T11:15:29;100449.53;;;9.70;nan
43814;BME280;29669;55.706;37.656;2022-10-26T11:18:48;100450.88;;;9.74;nan
43814;BME280;29669;55.706;37.656;2022-10-26T11:21:37;100449.84;;;9.57;nan
43814;BME280;29669;55.706;37.656;2022-10-26T11:24:29;100448.91;;;9.48;nan
43814;BME280;29669;55.706;37.656;2022-10-26T11:27:46;100443.44;;;9.52;nan
43814;BME280;29669;55.706;37.656;2022-10-26T11:30:42;100451.09;;;9.53;nan
43814;BME280;29669;55.706;37.656;2022-10-26T11:33:38;100446.16;;;9.50;nan
43814;BME280;29669;55.706;37.656;2022-10-26T11:36:27;100442.09;;;9.47;nan
43814;BME280;29669;55.706;37.656;2022-10-26T11:39:33;100438.00;;;9.45;nan
43814;BME280;29669;55.706;37.656;2022-10-26T11:45:30;100440.88;;;9.32;nan
43814;BME280;29669;55.706;37.656;2022-10-26T11:48:21;100439.78;;;9.25;nan
43814;BME280;29669;55.706;37.656;2022-10-26T11:51:19;100440.06;;;9.22;nan
43814;BME280;29669;55.706;37.656;2022-10-26T11:54:18;100434.34;;;9.19;nan
43814;BME280;29669;55.706;37.656;2022-10-26T11:57:08;100431.22;;;9.15;nan
43814;BME280;29669;55.706;37.656;2022-10-26T12:00:04;100432.31;;;9.13;nan
43814;BME280;29669;55.706;37.656;2022-10-26T12:03:01;100430.16;;;9.08;nan
43814;BME280;29669;55.706;37.656;2022-10-26T12:05:51;100425.09;;;8.97;nan
43814;BME280;29669;55.706;37.656;2022-10-26T12:08:44;100427.66;;;8.78;nan
43814;BME280;29669;55.706;37.656;2022-10-26T12:11:39;100420.16;;;8.66;nan
43814;BME280;29669;55.706;37.656;2022-10-26T12:14:52;100429.28;;;8.60;nan
43814;BME280;29669;55.706;37.656;2022-10-26T12:18:03;100424.66;;;8.54;nan
43814;BME280;29669;55.706;37.656;2022-10-26T12:23:54;100423.03;;;8.53;nan
43814;BME280;29669;55.706;37.656;2022-10-26T12:26:53;100427.34;;;8.43;nan
43814;BME280;29669;55.706;37.656;2022-10-26T12:29:46;100427.19;;;8.35;nan
43814;BME280;29669;55.706;37.656;2022-10-26T12:35:41;100418.88;;;8.31;nan
43814;BME280;29669;55.706;37.656;2022-10-26T12:41:54;100419.63;;;8.13;nan
43814;BME280;29669;55.706;37.656;2022-10-26T12:50:23;100416.53;;;7.89;nan
43814;BME280;29669;55.706;37.656;2022-10-26T12:53:16;100418.44;;;7.87;nan
43814;BME280;29669;55.706;37.656;2022-10-26T12:56:10;100422.50;;;7.80;nan
43814;BME280;29669;55.706;37.656;2022-10-26T13:08:19;100421.50;;;7.50;nan
43814;BME280;29669;55.706;37.656;2022-10-26T13:11:31;100419.84;;;7.49;nan
43814;BME280;29669;55.706;37.656;2022-10-26T13:14:35;100421.78;;;7.47;nan
43814;BME280;29669;55.706;37.656;2022-10-26T13:17:26;100418.88;;;7.41;nan
43814;BME280;29669;55.706;37.656;2022-10-26T13:20:16;100411.06;;;7.31;nan
43814;BME280;29669;55.706;37.656;2022-10-26T13:23:15;100413.44;;;7.23;nan
43814;BME280;29669;55.706;37.656;2022-10-26T13:26:12;100410.94;;;7.12;nan
43814;BME280;29669;55.706;37.656;2022-10-26T13:29:02;100416.84;;;7.03;nan
43814;BME280;29669;55.706;37.656;2022-10-26T13:31:51;100420.06;;;6.96;nan
43814;BME280;29669;55.706;37.656;2022-10-26T13:34:41;100404.75;;;6.83;nan
43814;BME280;29669;55.706;37.656;2022-10-26T13:37:31;100418.50;;;6.73;nan
43814;BME280;29669;55.706;37.656;2022-10-26T13:40:23;100420.06;;;6.64;nan
43814;BME280;29669;55.706;37.656;2022-10-26T13:43:20;100422.41;;;6.56;nan
43814;BME280;29669;55.706;37.656;2022-10-26T13:46:21;100415.16;;;6.50;nan
43814;BME280;29669;55.706;37.656;2022-10-26T13:49:20;100421.75;;;6.43;nan
43814;BME280;29669;55.706;37.656;2022-10-26T13:52:19;100425.50;;;6.39;nan
43814;BME280;29669;55.706;37.656;2022-10-26T13:55:25;100424.34;;;6.32;nan
43814;BME280;29669;55.706;37.656;2022-10-26T13:58:27;100419.31;;;6.19;nan
43814;BME280;29669;55.706;37.656;2022-10-26T14:01:19;100420.59;;;6.14;nan
43814;BME280;29669;55.706;37.656;2022-10-26T14:04:25;100427.19;;;6.07;nan
43814;BME280;29669;55.706;37.656;2022-10-26T14:07:17;100422.03;;;5.96;nan
43814;BME280;29669;55.706;37.656;2022-10-26T14:10:32;100428.56;;;5.89;nan
43814;BME280;29669;55.706;37.656;2022-10-26T14:13:24;100434.41;;;5.80;nan
43814;BME280;29669;55.706;37.656;2022-10-26T14:16:26;100432.28;;;5.73;nan
43814;BME280;29669;55.706;37.656;2022-10-26T14:19:36;100433.56;;;5.68;nan
43814;BME280;29669;55.706;37.656;2022-10-26T14:22:26;100433.22;;;5.61;nan
43814;BME280;29669;55.706;37.656;2022-10-26T14:28:24;100439.78;;;5.54;nan
43814;BME280;29669;55.706;37.656;2022-10-26T14:31:20;100437.88;;;5.56;nan
43814;BME280;29669;55.706;37.656;2022-10-26T14:34:09;100437.19;;;5.54;nan
43814;BME280;29669;55.706;37.656;2022-10-26T14:37:02;100441.66;;;5.52;nan
43814;BME280;29669;55.706;37.656;2022-10-26T14:39:51;100436.81;;;5.48;nan
43814;BME280;29669;55.706;37.656;2022-10-26T14:42:40;100440.44;;;5.45;nan
43814;BME280;29669;55.706;37.656;2022-10-26T14:45:36;100433.66;;;5.44;nan
43814;BME280;29669;55.706;37.656;2022-10-26T14:48:50;100438.09;;;5.42;nan
43814;BME280;29669;55.706;37.656;2022-10-26T14:51:38;100438.31;;;5.39;nan
43814;BME280;29669;55.706;37.656;2022-10-26T14:54:27;100439.25;;;5.38;nan
43814;BME280;29669;55.706;37.656;2022-10-26T14:57:30;100441.13;;;5.36;nan
43814;BME280;29669;55.706;37.656;2022-10-26T15:00:24;100444.66;;;5.35;nan
43814;BME280;29669;55.706;37.656;2022-10-26T15:03:14;100437.03;;;5.34;nan
43814;BME280;29669;55.706;37.656;2022-10-26T15:09:48;100445.69;;;5.33;nan
43814;BME280;29669;55.706;37.656;2022-10-26T15:12:37;100439.81;;;5.31;nan
43814;BME280;29669;55.706;37.656;2022-10-26T15:15:26;100438.88;;;5.32;nan
43814;BME280;29669;55.706;37.656;2022-10-26T15:21:38;100441.72;;;5.40;nan
43814;BME280;29669;55.706;37.656;2022-10-26T15:24:35;100441.59;;;5.41;nan
43814;BME280;29669;55.706;37.656;2022-10-26T15:27:25;100440.69;;;5.42;nan
43814;BME280;29669;55.706;37.656;2022-10-26T15:30:20;100438.00;;;5.44;nan
43814;BME280;29669;55.706;37.656;2022-10-26T15:33:19;100432.72;;;5.45;nan
43814;BME280;29669;55.706;37.656;2022-10-26T15:36:14;100430.13;;;5.45;nan
43814;BME280;29669;55.706;37.656;2022-10-26T15:39:03;100432.72;;;5.45;nan
43814;BME280;29669;55.706;37.656;2022-10-26T15:41:54;100436.25;;;5.44;nan
43814;BME280;29669;55.706;37.656;2022-10-26T15:44:42;100434.81;;;5.40;nan
43814;BME280;29669;55.706;37.656;2022-10-26T15:47:32;100430.50;;;5.41;nan
43814;BME280;29669;55.706;37.656;2022-10-26T15:50:26;100434.25;;;5.37;nan
43814;BME280;29669;55.706;37.656;2022-10-26T15:53:18;100441.47;;;5.32;nan
43814;BME280;29669;55.706;37.656;2022-10-26T15:56:17;100430.81;;;5.25;nan
43814;BME280;29669;55.706;37.656;2022-10-26T15:59:17;100436.41;;;5.19;nan
43814;BME280;29669;55.706;37.656;2022-10-26T16:02:15;100441.28;;;5.11;nan
43814;BME280;29669;55.706;37.656;2022-10-26T16:05:03;100441.03;;;5.03;nan
43814;BME280;29669;55.706;37.656;2022-10-26T16:07:51;100442.31;;;4.98;nan
43814;BME280;29669;55.706;37.656;2022-10-26T16:10:39;100446.13;;;4.92;nan
43814;BME280;29669;55.706;37.656;2022-10-26T16:13:27;100432.28;;;4.82;nan
43814;BME280;29669;55.706;37.656;2022-10-26T16:16:18;100437.63;;;4.79;nan
43814;BME280;29669;55.706;37.656;2022-10-26T16:19:08;100439.00;;;4.72;nan
43814;BME280;29669;55.706;37.656;2022-10-26T16:22:16;100439.69;;;4.63;nan
43814;BME280;29669;55.706;37.656;2022-10-26T16:25:04;100433.00;;;4.60;nan
43814;BME280;29669;55.706;37.656;2022-10-26T16:27:53;100437.53;;;4.57;nan
43814;BME280;29669;55.706;37.656;2022-10-26T16:30:42;100426.88;;;4.50;nan
43814;BME280;29669;55.706;37.656;2022-10-26T16:33:32;100440.66;;;4.49;nan
43814;BME280;29669;55.706;37.656;2022-10-26T16:36:22;100436.75;;;4.44;nan
43814;BME280;29669;55.706;37.656;2022-10-26T16:39:11;100442.13;;;4.41;nan
43814;BME280;29669;55.706;37.656;2022-10-26T16:41:59;100437.28;;;4.36;nan
43814;BME280;29669;55.706;37.656;2022-10-26T16:44:48;100434.00;;;4.34;nan
43814;BME280;29669;55.706;37.656;2022-10-26T16:47:35;100428.28;;;4.31;nan
43814;BME280;29669;55.706;37.656;2022-10-26T16:50:26;100432.69;;;4.29;nan
43814;BME280;29669;55.706;37.656;2022-10-26T16:53:14;100428.69;;;4.25;nan
43814;BME280;29669;55.706;37.656;2022-10-26T16:56:04;100430.34;;;4.26;nan
43814;BME280;29669;55.706;37.656;2022-10-26T16:58:52;100425.41;;;4.23;nan
43814;BME280;29669;55.706;37.656;2022-10-26T17:01:41;100437.66;;;4.19;nan
43814;BME280;29669;55.706;37.656;2022-10-26T17:04:29;100435.69;;;4.23;nan